Portada
METAR-TAF:

METAR-TAF

Aeropuertos :

Aeropuerto de Génova

Génova, Italia

latitud: 44-25N, longitud: 008-51E, altitud: 2 m

Observación

El informe se hizo hace 5 horas y 3 minutos, a las 20:50 UTC
Viento 6 kt del norte
Temperatura 9°C
Humedad 61%
Presión 1013 hPa
Visibilidad 10 km o más
sin nubes por debajo de 1500 m y sin presencia de cumulonimbus.

METAR: LIMJ 022050Z 36006KT CAVOK 09/02 Q1013

Hora: 03:53 (01:53 UTC)

Pronóstico

El informe se hizo hace 8 horas y 53 minutos, a las 17:00 UTC
Pronóstico válido del 02 a las 18 UTC al 03 a las 18 UTC
Viento 10 kt del norte-noreste
Visibilidad 10 km o más
sin nubes por debajo de 1500 m y sin presencia de cumulonimbus.
Evolucionando progresivamente
del 03 a las 08 UTC al 03 a las 10 UTC
Viento 8 kt del sur

TAF: LIMJ 021700Z 0218/0318 03010KT CAVOK BECMG 0308/0310 18008KT

Observaciones y pronósticos meteorológicos de más de 4000 aeropuertos (mensajes METAR y TAF).

Los puntos amarillos y rojos representan las estaciones disponibles.

Ponga el ratón en el punto deseado para ver el nombre de la estación.

Haga clic para ver las observaciones y los pronósticos meteorológicos.

Para cambiar el mapa : haga clic en los botones verdes con una cruz de color negro para hacer un zoom, en el botón verde con un guión para alejar o en las flechas verdes para mapas adyacentes.


METAR-TAF: